Time;durP1;ratioP1;P1;durP2;ratioP2;P2;SDS_P1;SDS_P2;PMS_P1;PMS_P2;Temp;Humidity;BMP_temperature;BMP_pressure;BME280_temperature;BME280_humidity;BME280_pressure;Samples;Min_cycle;Max_cycle;Signal;HPM_P1;HPM_P2
2020/12/26 00:00:24;;;;;;;21.67;10.40;;;;;;;;;;5053135;28;20473;-50
2020/12/26 00:02:50;;;;;;;14.60;10.73;;;;;;;;;;5053634;28;20427;-50
2020/12/26 00:05:16;;;;;;;17.40;10.50;;;;;;;;;;5053869;28;21078;-51
2020/12/26 00:07:42;;;;;;;15.47;11.90;;;;;;;;;;5053846;28;20414;-51
2020/12/26 00:10:08;;;;;;;18.52;10.88;;;;;;;;;;5053515;28;20412;-51
2020/12/26 00:12:34;;;;;;;13.13;10.98;;;;;;;;;;5053626;28;20212;-51
2020/12/26 00:15:01;;;;;;;18.85;11.88;;;;;;;;;;5048517;28;20927;-50
2020/12/26 00:17:27;;;;;;;15.88;11.70;;;;;;;;;;5053571;28;20216;-51
2020/12/26 00:19:53;;;;;;;16.93;11.60;;;;;;;;;;5053502;28;20226;-50
2020/12/26 00:22:19;;;;;;;16.52;12.18;;;;;;;;;;5053239;28;20419;-50
2020/12/26 00:24:45;;;;;;;15.95;11.55;;;;;;;;;;5053455;28;20173;-49
2020/12/26 00:27:11;;;;;;;18.47;12.63;;;;;;;;;;5053704;28;20185;-50
2020/12/26 00:29:36;;;;;;;17.10;12.53;;;;;;;;;;5049931;28;20966;-50
2020/12/26 00:32:03;;;;;;;14.70;12.90;;;;;;;;;;5053084;28;20501;-50
2020/12/26 00:34:29;;;;;;;22.77;13.25;;;;;;;;;;5053378;28;20913;-50
2020/12/26 00:36:55;;;;;;;17.47;12.93;;;;;;;;;;5053156;28;20171;-51
2020/12/26 00:39:21;;;;;;;20.60;14.27;;;;;;;;;;5053371;28;20465;-50
2020/12/26 00:41:47;;;;;;;22.00;14.15;;;;;;;;;;5052750;28;20247;-50
2020/12/26 00:44:13;;;;;;;21.33;14.82;;;;;;;;;;5053116;28;20540;-50
2020/12/26 00:46:39;;;;;;;25.67;15.13;;;;;;;;;;5052990;28;20175;-51
2020/12/26 00:49:05;;;;;;;17.17;13.27;;;;;;;;;;5052816;28;20169;-51
2020/12/26 00:51:31;;;;;;;22.53;15.90;;;;;;;;;;5052621;28;20175;-51
2020/12/26 00:53:57;;;;;;;20.20;14.73;;;;;;;;;;5051544;28;20479;-50
2020/12/26 00:56:23;;;;;;;22.83;15.13;;;;;;;;;;5052925;28;20410;-50
2020/12/26 00:58:49;;;;;;;35.73;15.03;;;;;;;;;;5052675;28;20295;-51
2020/12/26 01:01:15;;;;;;;37.47;17.45;;;;;;;;;;5048707;28;20468;-51
2020/12/26 01:03:42;;;;;;;22.90;16.10;;;;;;;;;;5052497;28;20205;-50
2020/12/26 01:06:15;;;;;;;28.40;16.60;;;;;;;;;;5052673;28;20808;-51
2020/12/26 01:08:41;;;;;;;28.52;17.17;;;;;;;;;;5052851;28;20175;-51
2020/12/26 01:11:07;;;;;;;31.13;18.20;;;;;;;;;;5052444;28;20176;-50
2020/12/26 01:13:33;;;;;;;35.50;18.55;;;;;;;;;;5052476;28;20187;-51
2020/12/26 01:15:59;;;;;;;34.90;19.13;;;;;;;;;;5052394;28;20183;-52
2020/12/26 01:18:28;;;;;;;30.83;18.40;;;;;;;;;;5052296;28;20542;-51
2020/12/26 01:20:54;;;;;;;32.03;19.27;;;;;;;;;;5052651;28;20399;-51
2020/12/26 01:23:20;;;;;;;31.08;19.60;;;;;;;;;;5052241;28;20256;-51
2020/12/26 01:25:48;;;;;;;28.93;18.80;;;;;;;;;;5052362;28;20628;-51
2020/12/26 01:28:14;;;;;;;29.35;20.33;;;;;;;;;;5052438;28;20441;-51
2020/12/26 01:30:39;;;;;;;27.07;18.03;;;;;;;;;;5048708;28;20217;-52
2020/12/26 01:33:05;;;;;;;32.03;19.63;;;;;;;;;;5051818;28;20423;-51
2020/12/26 01:35:31;;;;;;;33.73;19.13;;;;;;;;;;5052374;28;20402;-51
2020/12/26 01:37:57;;;;;;;27.70;20.00;;;;;;;;;;5052196;28;20895;-51
2020/12/26 01:40:23;;;;;;;29.47;19.10;;;;;;;;;;5052198;28;20831;-51
2020/12/26 01:42:49;;;;;;;29.23;19.17;;;;;;;;;;5051861;28;20873;-51
2020/12/26 01:45:15;;;;;;;27.67;18.27;;;;;;;;;;5052181;28;20410;-50
2020/12/26 01:47:41;;;;;;;31.13;18.20;;;;;;;;;;5052094;28;20413;-51
2020/12/26 01:50:07;;;;;;;28.57;16.97;;;;;;;;;;5051961;28;20413;-51
2020/12/26 01:52:33;;;;;;;30.47;17.60;;;;;;;;;;5051684;28;20920;-50
2020/12/26 01:54:59;;;;;;;22.05;16.77;;;;;;;;;;5052046;28;20801;-51
2020/12/26 01:57:31;;;;;;;22.47;17.17;;;;;;;;;;5051972;28;20682;-51
2020/12/26 01:59:57;;;;;;;24.20;18.40;;;;;;;;;;5050380;28;20459;-51
2020/12/26 02:02:23;;;;;;;27.77;19.23;;;;;;;;;;5050645;28;20246;-51
2020/12/26 02:04:49;;;;;;;36.00;18.73;;;;;;;;;;5051097;28;20431;-51
2020/12/26 02:07:15;;;;;;;24.37;17.30;;;;;;;;;;5051587;28;20419;-50
2020/12/26 02:09:41;;;;;;;21.73;16.17;;;;;;;;;;5051718;28;20460;-52
2020/12/26 02:12:07;;;;;;;28.33;17.33;;;;;;;;;;5051071;28;20427;-52
2020/12/26 02:14:33;;;;;;;25.47;16.03;;;;;;;;;;5051503;28;20468;-50
2020/12/26 02:16:59;;;;;;;20.15;13.32;;;;;;;;;;5051317;28;20414;-50
2020/12/26 02:19:26;;;;;;;18.50;12.83;;;;;;;;;;5051459;28;20204;-51
2020/12/26 02:21:52;;;;;;;18.17;12.95;;;;;;;;;;5051151;28;20455;-51
2020/12/26 02:24:18;;;;;;;21.85;12.70;;;;;;;;;;5051409;28;20636;-52
2020/12/26 02:26:44;;;;;;;19.48;13.10;;;;;;;;;;5051226;28;20170;-51
2020/12/26 02:29:10;;;;;;;19.17;12.20;;;;;;;;;;5048214;28;20267;-51
2020/12/26 02:31:36;;;;;;;12.30;10.50;;;;;;;;;;5050937;28;20398;-51
2020/12/26 02:34:03;;;;;;;13.90;10.85;;;;;;;;;;5051045;28;20163;-51
2020/12/26 02:36:29;;;;;;;20.38;11.57;;;;;;;;;;5051309;28;20187;-51
2020/12/26 02:38:55;;;;;;;18.40;10.00;;;;;;;;;;5050981;28;20633;-51
2020/12/26 02:41:21;;;;;;;16.60;10.50;;;;;;;;;;5050820;28;20395;-51
2020/12/26 02:43:47;;;;;;;14.50;10.67;;;;;;;;;;5050744;28;20414;-51
2020/12/26 02:46:13;;;;;;;16.37;11.47;;;;;;;;;;5051063;28;20975;-51
2020/12/26 02:48:39;;;;;;;11.38;9.57;;;;;;;;;;5050912;28;20401;-51
2020/12/26 02:51:05;;;;;;;12.97;9.63;;;;;;;;;;5050776;28;20511;-50
2020/12/26 02:53:31;;;;;;;21.03;11.50;;;;;;;;;;5050769;28;20555;-52
2020/12/26 02:55:57;;;;;;;11.85;9.32;;;;;;;;;;5050786;28;20411;-50
2020/12/26 02:58:23;;;;;;;15.00;10.23;;;;;;;;;;5050686;28;20774;-51
2020/12/26 03:00:49;;;;;;;14.43;10.20;;;;;;;;;;5046966;28;20263;-50
2020/12/26 03:03:16;;;;;;;15.03;9.93;;;;;;;;;;5049339;28;20453;-50
2020/12/26 03:05:42;;;;;;;21.55;10.55;;;;;;;;;;5050555;28;20528;-51
2020/12/26 03:08:08;;;;;;;12.73;10.50;;;;;;;;;;5050651;28;20227;-51
2020/12/26 03:10:34;;;;;;;13.35;11.07;;;;;;;;;;5050681;28;20545;-51
2020/12/26 03:13:00;;;;;;;17.95;11.63;;;;;;;;;;5049176;28;20192;-51
2020/12/26 03:15:26;;;;;;;17.03;12.07;;;;;;;;;;5050708;28;20167;-51
2020/12/26 03:17:52;;;;;;;18.30;11.40;;;;;;;;;;5050403;28;20897;-51
2020/12/26 03:20:18;;;;;;;15.50;11.80;;;;;;;;;;5050563;28;20964;-51
2020/12/26 03:22:44;;;;;;;19.70;13.93;;;;;;;;;;5048817;28;20425;-52
2020/12/26 03:25:11;;;;;;;21.13;13.13;;;;;;;;;;5050593;28;20168;-50
2020/12/26 03:27:37;;;;;;;20.30;12.77;;;;;;;;;;5050339;28;20947;-50
2020/12/26 03:30:03;;;;;;;24.38;14.10;;;;;;;;;;5048780;28;20228;-51
2020/12/26 03:32:29;;;;;;;26.63;14.75;;;;;;;;;;5048108;28;20282;-51
2020/12/26 03:34:55;;;;;;;24.87;15.20;;;;;;;;;;5050330;28;20247;-51
2020/12/26 03:37:21;;;;;;;25.80;15.80;;;;;;;;;;5050444;28;20917;-50
2020/12/26 03:39:47;;;;;;;23.33;15.60;;;;;;;;;;5050280;28;20841;-50
2020/12/26 03:42:13;;;;;;;30.87;19.23;;;;;;;;;;5049925;28;20411;-52
2020/12/26 03:44:40;;;;;;;27.60;17.05;;;;;;;;;;5050485;28;20451;-50
2020/12/26 03:47:06;;;;;;;28.95;15.65;;;;;;;;;;5050382;28;20519;-51
2020/12/26 03:49:32;;;;;;;28.45;16.58;;;;;;;;;;5050374;28;20206;-52
2020/12/26 03:51:58;;;;;;;24.35;15.13;;;;;;;;;;5050126;28;20183;-51
2020/12/26 03:54:24;;;;;;;31.02;17.33;;;;;;;;;;5050296;28;20216;-52
2020/12/26 03:56:50;;;;;;;25.63;15.57;;;;;;;;;;5050121;28;20257;-51
2020/12/26 03:59:17;;;;;;;25.80;17.20;;;;;;;;;;5048548;28;20458;-50
2020/12/26 04:01:43;;;;;;;26.85;16.45;;;;;;;;;;5049854;28;20409;-51
2020/12/26 04:04:10;;;;;;;29.70;16.13;;;;;;;;;;5050435;28;20199;-51
2020/12/26 04:06:35;;;;;;;30.73;16.85;;;;;;;;;;5050049;28;20163;-50
2020/12/26 04:09:01;;;;;;;25.97;17.53;;;;;;;;;;5050205;28;20172;-51
2020/12/26 04:11:27;;;;;;;28.90;16.27;;;;;;;;;;5049832;28;20464;-51
2020/12/26 04:13:53;;;;;;;27.40;16.10;;;;;;;;;;5049963;28;20826;-50
2020/12/26 04:16:19;;;;;;;22.57;14.23;;;;;;;;;;5050184;28;20407;-51
2020/12/26 04:18:45;;;;;;;26.03;15.43;;;;;;;;;;5049929;28;20480;-51
2020/12/26 04:21:11;;;;;;;16.50;12.60;;;;;;;;;;5049969;28;20394;-51
2020/12/26 04:23:37;;;;;;;23.00;14.50;;;;;;;;;;5050500;28;20428;-52
2020/12/26 04:26:08;;;;;;;20.40;13.35;;;;;;;;;;5053960;28;20918;-51
2020/12/26 04:28:34;;;;;;;16.17;10.85;;;;;;;;;;5050440;28;20211;-51
2020/12/26 04:31:00;;;;;;;16.90;12.20;;;;;;;;;;5053837;28;20206;-51
2020/12/26 04:33:26;;;;;;;25.43;10.30;;;;;;;;;;5053365;28;20434;-50
2020/12/26 04:35:52;;;;;;;17.60;10.23;;;;;;;;;;5053364;28;20464;-52
2020/12/26 04:38:18;;;;;;;16.23;10.37;;;;;;;;;;5053447;28;20459;-52
2020/12/26 04:40:44;;;;;;;24.60;12.13;;;;;;;;;;5053449;28;20429;-51
2020/12/26 04:43:10;;;;;;;17.52;9.82;;;;;;;;;;5053039;28;20447;-51
2020/12/26 04:45:37;;;;;;;17.90;11.50;;;;;;;;;;5053251;28;20242;-52
2020/12/26 04:48:08;;;;;;;11.88;9.85;;;;;;;;;;5053339;28;20397;-51
2020/12/26 04:50:34;;;;;;;18.25;9.85;;;;;;;;;;5053105;28;20167;-51
2020/12/26 04:53:05;;;;;;;13.43;10.57;;;;;;;;;;5052729;28;20203;-51
2020/12/26 04:55:37;;;;;;;19.83;10.38;;;;;;;;;;5053104;28;20170;-51
2020/12/26 04:58:09;;;;;;;11.52;9.70;;;;;;;;;;5052929;28;20172;-51
2020/12/26 05:00:36;;;;;;;19.15;11.75;;;;;;;;;;5048766;28;20196;-51
2020/12/26 05:03:10;;;;;;;17.35;11.40;;;;;;;;;;5052503;28;20691;-51
2020/12/26 05:05:37;;;;;;;21.23;13.00;;;;;;;;;;5052686;28;20311;-51
2020/12/26 05:08:06;;;;;;;21.52;13.25;;;;;;;;;;5052751;28;20161;-51
2020/12/26 05:10:34;;;;;;;14.02;10.60;;;;;;;;;;5052829;28;20722;-51
2020/12/26 05:13:00;;;;;;;16.52;11.50;;;;;;;;;;5052308;28;20184;-51
2020/12/26 05:15:26;;;;;;;20.15;12.82;;;;;;;;;;5051400;28;20619;-51
2020/12/26 05:17:58;;;;;;;18.08;11.10;;;;;;;;;;5052519;28;20245;-51
2020/12/26 05:20:26;;;;;;;26.95;13.80;;;;;;;;;;5052582;28;20563;-51
2020/12/26 05:23:06;;;;;;;24.92;15.27;;;;;;;;;;5052442;28;20203;-51
2020/12/26 05:25:32;;;;;;;30.48;17.70;;;;;;;;;;5052403;28;20217;-50
2020/12/26 05:28:11;;;;;;;22.30;17.20;;;;;;;;;;5052498;28;20172;-51
2020/12/26 05:30:38;;;;;;;22.92;16.17;;;;;;;;;;5049189;28;20419;-51
2020/12/26 05:33:05;;;;;;;28.52;18.90;;;;;;;;;;5052096;28;20668;-50
2020/12/26 05:35:38;;;;;;;26.80;18.70;;;;;;;;;;5051249;28;20249;-51
2020/12/26 05:38:11;;;;;;;33.05;19.63;;;;;;;;;;5052291;28;20166;-50
2020/12/26 05:40:41;;;;;;;31.38;19.60;;;;;;;;;;5052032;28;20234;-51
2020/12/26 05:43:08;;;;;;;30.73;19.15;;;;;;;;;;5051836;28;20183;-50
2020/12/26 05:45:41;;;;;;;36.38;21.55;;;;;;;;;;5052195;28;20252;-51
2020/12/26 05:48:07;;;;;;;31.35;20.15;;;;;;;;;;5052118;28;20163;-51
2020/12/26 05:50:33;;;;;;;32.97;19.52;;;;;;;;;;5052151;28;20220;-51
2020/12/26 05:53:01;;;;;;;32.13;20.97;;;;;;;;;;5051623;28;20688;-51
2020/12/26 05:55:35;;;;;;;28.23;19.50;;;;;;;;;;5051865;28;20408;-51
2020/12/26 05:58:01;;;;;;;31.77;20.85;;;;;;;;;;5051856;28;20219;-51
2020/12/26 06:00:31;;;;;;;31.42;19.48;;;;;;;;;;5050372;28;20203;-51
2020/12/26 06:02:57;;;;;;;26.02;17.23;;;;;;;;;;5051737;28;20192;-51
2020/12/26 06:05:24;;;;;;;25.60;18.53;;;;;;;;;;5052046;28;20187;-50
2020/12/26 06:07:50;;;;;;;26.50;18.15;;;;;;;;;;5051820;28;20405;-51
2020/12/26 06:10:16;;;;;;;25.17;16.48;;;;;;;;;;5051842;28;20177;-51
2020/12/26 06:12:43;;;;;;;24.47;16.40;;;;;;;;;;5051371;28;20272;-51
2020/12/26 06:15:09;;;;;;;28.17;17.23;;;;;;;;;;5051526;28;20407;-51
2020/12/26 06:17:35;;;;;;;24.30;17.42;;;;;;;;;;5051576;28;20660;-51
2020/12/26 06:20:07;;;;;;;21.40;16.50;;;;;;;;;;5051301;28;20203;-51
2020/12/26 06:22:46;;;;;;;22.30;16.80;;;;;;;;;;5051038;28;20423;-52
2020/12/26 06:25:22;;;;;;;25.42;16.52;;;;;;;;;;5051202;28;20167;-51
2020/12/26 06:27:51;;;;;;;21.38;16.65;;;;;;;;;;5051433;28;20162;-50
2020/12/26 06:30:17;;;;;;;22.48;15.88;;;;;;;;;;5047427;28;20198;-51
2020/12/26 06:32:45;;;;;;;25.50;18.17;;;;;;;;;;5051035;28;20569;-51
2020/12/26 06:35:12;;;;;;;28.48;17.15;;;;;;;;;;5051187;28;20663;-51
2020/12/26 06:37:38;;;;;;;23.25;18.73;;;;;;;;;;5051110;28;20183;-51
2020/12/26 06:40:22;;;;;;;30.13;17.17;;;;;;;;;;5051046;28;20286;-51
2020/12/26 06:42:48;;;;;;;25.52;18.15;;;;;;;;;;5050772;28;20997;-52
2020/12/26 06:45:28;;;;;;;27.47;17.23;;;;;;;;;;5051129;28;20286;-52
2020/12/26 06:47:54;;;;;;;26.88;18.25;;;;;;;;;;5050682;28;20399;-50
2020/12/26 06:50:21;;;;;;;28.03;18.80;;;;;;;;;;5051008;28;20169;-51
2020/12/26 06:52:47;;;;;;;26.50;18.05;;;;;;;;;;5050466;28;20443;-50
2020/12/26 06:55:33;;;;;;;28.48;18.77;;;;;;;;;;5050873;28;20175;-51
2020/12/26 06:57:59;;;;;;;26.48;17.35;;;;;;;;;;5049022;28;20252;-51
2020/12/26 07:00:26;;;;;;;23.00;17.60;;;;;;;;;;5050849;28;20791;-52
2020/12/26 07:03:12;;;;;;;27.23;17.13;;;;;;;;;;5030383;28;20851;-51
2020/12/26 07:05:38;;;;;;;27.85;17.58;;;;;;;;;;5030183;28;20619;-51
2020/12/26 07:08:04;;;;;;;29.20;18.95;;;;;;;;;;5011272;28;20245;-51
2020/12/26 07:10:37;;;;;;;33.83;19.05;;;;;;;;;;5021445;28;20183;-51
2020/12/26 07:13:03;;;;;;;26.88;17.55;;;;;;;;;;5030425;28;20196;-50
2020/12/26 07:15:32;;;;;;;25.57;17.67;;;;;;;;;;5030257;28;20224;-51
2020/12/26 07:18:18;;;;;;;25.90;17.95;;;;;;;;;;5030247;28;20419;-51
2020/12/26 07:20:51;;;;;;;32.13;19.40;;;;;;;;;;5029785;28;20180;-51
2020/12/26 07:23:17;;;;;;;28.17;17.10;;;;;;;;;;5036655;28;20610;-51
2020/12/26 07:25:43;;;;;;;31.70;19.50;;;;;;;;;;5031670;28;20212;-51
2020/12/26 07:28:13;;;;;;;32.40;20.25;;;;;;;;;;5031389;28;20255;-50
2020/12/26 07:30:38;;;;;;;29.88;18.25;;;;;;;;;;5046585;28;20867;-51
2020/12/26 07:33:04;;;;;;;25.23;17.97;;;;;;;;;;5043689;28;20221;-51
2020/12/26 07:35:33;;;;;;;26.83;19.27;;;;;;;;;;5029588;28;20395;-50
2020/12/26 07:38:12;;;;;;;26.45;17.80;;;;;;;;;;5030402;28;22254;-50
2020/12/26 07:40:45;;;;;;;25.05;16.63;;;;;;;;;;5036936;28;20209;-51
2020/12/26 07:43:16;;;;;;;30.05;18.13;;;;;;;;;;5030174;28;20191;-51
2020/12/26 07:45:43;;;;;;;25.00;16.10;;;;;;;;;;5030196;28;20210;-51
2020/12/26 07:48:09;;;;;;;24.15;17.30;;;;;;;;;;5027924;28;20672;-51
2020/12/26 07:50:37;;;;;;;26.45;17.08;;;;;;;;;;5030267;28;20573;-52
2020/12/26 07:53:07;;;;;;;20.33;14.45;;;;;;;;;;5029008;28;20261;-51
2020/12/26 07:55:34;;;;;;;22.77;15.18;;;;;;;;;;5030286;28;20741;-51
2020/12/26 07:58:01;;;;;;;24.55;15.07;;;;;;;;;;5030076;28;20193;-51
2020/12/26 08:00:30;;;;;;;21.83;14.73;;;;;;;;;;5032474;28;20199;-52
2020/12/26 08:02:57;;;;;;;23.08;13.73;;;;;;;;;;5033716;28;20334;-51
2020/12/26 08:05:26;;;;;;;24.25;15.10;;;;;;;;;;5028285;28;20199;-52
2020/12/26 08:07:52;;;;;;;30.63;17.58;;;;;;;;;;5031164;28;20176;-51
2020/12/26 08:10:19;;;;;;;26.40;15.93;;;;;;;;;;5033216;28;20240;-50
2020/12/26 08:12:49;;;;;;;27.73;14.75;;;;;;;;;;5024332;28;20194;-49
2020/12/26 08:15:18;;;;;;;19.40;13.95;;;;;;;;;;5033816;28;20191;-50
2020/12/26 08:17:46;;;;;;;24.40;14.57;;;;;;;;;;5033822;28;20170;-51
2020/12/26 08:20:14;;;;;;;26.70;16.48;;;;;;;;;;5033741;28;20848;-49
2020/12/26 08:22:42;;;;;;;24.00;14.98;;;;;;;;;;5033021;28;20200;-52
2020/12/26 08:25:09;;;;;;;22.88;13.77;;;;;;;;;;5022035;28;20577;-52
2020/12/26 08:27:36;;;;;;;21.25;14.35;;;;;;;;;;5025281;28;20201;-49
2020/12/26 08:30:07;;;;;;;25.15;14.35;;;;;;;;;;5025317;28;20187;-52
2020/12/26 08:32:36;;;;;;;24.45;14.13;;;;;;;;;;5025043;28;20280;-49
2020/12/26 08:35:03;;;;;;;19.05;13.25;;;;;;;;;;5012850;28;20669;-49
2020/12/26 08:37:41;;;;;;;20.83;13.95;;;;;;;;;;5013397;28;20188;-49
2020/12/26 08:40:23;;;;;;;18.65;13.07;;;;;;;;;;5013460;28;20272;-49
2020/12/26 08:42:49;;;;;;;14.98;12.55;;;;;;;;;;5013683;28;20581;-50
2020/12/26 08:45:26;;;;;;;23.37;14.17;;;;;;;;;;5013483;28;20168;-51
2020/12/26 08:47:51;;;;;;;22.20;14.50;;;;;;;;;;5013547;28;20428;-52
2020/12/26 08:50:18;;;;;;;20.33;14.10;;;;;;;;;;5013438;28;20732;-49
2020/12/26 08:52:44;;;;;;;16.13;11.30;;;;;;;;;;5013067;28;20512;-49
2020/12/26 08:55:11;;;;;;;17.25;13.40;;;;;;;;;;5013403;28;20583;-49
2020/12/26 08:57:38;;;;;;;18.55;12.45;;;;;;;;;;5013445;28;20170;-49
2020/12/26 09:00:15;;;;;;;17.33;10.93;;;;;;;;;;5040729;28;20771;-49
2020/12/26 09:02:45;;;;;;;23.02;13.73;;;;;;;;;;5052408;28;20240;-49
2020/12/26 09:05:30;;;;;;;15.45;11.85;;;;;;;;;;5052816;28;20690;-52
2020/12/26 09:08:05;;;;;;;17.15;11.75;;;;;;;;;;5052648;28;20174;-49
2020/12/26 09:10:31;;;;;;;14.68;11.07;;;;;;;;;;5052823;28;20689;-49
2020/12/26 09:13:01;;;;;;;14.48;9.90;;;;;;;;;;5052689;28;20198;-52
2020/12/26 09:15:27;;;;;;;13.40;10.07;;;;;;;;;;5052678;28;20167;-52
2020/12/26 09:17:53;;;;;;;13.25;8.93;;;;;;;;;;5052774;28;20178;-51
2020/12/26 09:20:19;;;;;;;15.73;10.10;;;;;;;;;;5052608;28;20586;-52
2020/12/26 09:22:45;;;;;;;13.03;9.20;;;;;;;;;;5052304;28;20421;-51
2020/12/26 09:25:26;;;;;;;11.00;8.30;;;;;;;;;;5052406;28;20406;-49
2020/12/26 09:28:02;;;;;;;12.85;9.20;;;;;;;;;;5052488;28;20923;-49
2020/12/26 09:30:28;;;;;;;12.55;8.90;;;;;;;;;;5049262;28;20283;-52
2020/12/26 09:32:54;;;;;;;10.40;8.87;;;;;;;;;;5050635;28;20680;-52
2020/12/26 09:35:20;;;;;;;12.75;8.80;;;;;;;;;;5052117;28;20403;-49
2020/12/26 09:37:53;;;;;;;12.67;9.23;;;;;;;;;;5052191;28;20236;-49
2020/12/26 09:40:19;;;;;;;11.55;8.20;;;;;;;;;;5052053;28;20480;-49
2020/12/26 09:42:51;;;;;;;11.13;9.15;;;;;;;;;;5051884;28;20189;-49
2020/12/26 09:45:18;;;;;;;13.55;9.90;;;;;;;;;;5052209;28;20530;-49
2020/12/26 09:47:44;;;;;;;19.23;9.00;;;;;;;;;;5052141;28;20541;-52
2020/12/26 09:50:10;;;;;;;14.57;8.53;;;;;;;;;;5052140;28;20201;-49
2020/12/26 09:52:38;;;;;;;12.80;9.20;;;;;;;;;;5051628;28;20862;-49
2020/12/26 09:55:04;;;;;;;14.32;8.73;;;;;;;;;;5051621;28;20408;-49
2020/12/26 09:57:30;;;;;;;10.50;8.80;;;;;;;;;;5051750;28;20583;-49
2020/12/26 09:59:55;;;;;;;11.75;8.50;;;;;;;;;;5049140;28;20509;-49
2020/12/26 10:02:21;;;;;;;13.57;8.53;;;;;;;;;;5051762;28;20197;-49
2020/12/26 10:04:47;;;;;;;14.13;8.38;;;;;;;;;;5051902;28;20428;-49
2020/12/26 10:07:13;;;;;;;11.10;9.10;;;;;;;;;;5051973;28;20169;-49
2020/12/26 10:09:39;;;;;;;12.43;9.03;;;;;;;;;;5050417;28;20484;-50
2020/12/26 10:12:05;;;;;;;13.37;8.77;;;;;;;;;;5031375;28;20777;-49
2020/12/26 10:14:31;;;;;;;12.37;8.43;;;;;;;;;;5031781;28;20755;-50
2020/12/26 10:16:57;;;;;;;13.20;8.50;;;;;;;;;;5031764;28;20562;-51
2020/12/26 10:19:23;;;;;;;11.00;8.70;;;;;;;;;;5031362;28;20450;-52
2020/12/26 10:21:52;;;;;;;11.63;9.80;;;;;;;;;;5030825;28;20485;-50
2020/12/26 10:24:18;;;;;;;11.48;8.85;;;;;;;;;;5031213;28;20401;-50
2020/12/26 10:26:44;;;;;;;13.93;9.20;;;;;;;;;;5031433;28;20510;-49
2020/12/26 10:29:10;;;;;;;12.17;8.77;;;;;;;;;;5036742;28;20439;-49
2020/12/26 10:31:36;;;;;;;14.30;8.43;;;;;;;;;;5050735;28;20407;-49
2020/12/26 10:34:02;;;;;;;11.37;8.30;;;;;;;;;;5051240;28;20404;-50
2020/12/26 10:36:28;;;;;;;10.80;8.33;;;;;;;;;;5050897;28;20400;-51
2020/12/26 10:38:54;;;;;;;17.13;8.67;;;;;;;;;;5049157;28;20471;-52
2020/12/26 10:41:21;;;;;;;9.87;8.37;;;;;;;;;;5050316;28;20413;-52
2020/12/26 10:43:47;;;;;;;16.08;8.35;;;;;;;;;;5050573;28;20464;-49
2020/12/26 10:46:13;;;;;;;18.10;8.30;;;;;;;;;;5051061;28;20194;-49
2020/12/26 10:48:40;;;;;;;13.32;7.20;;;;;;;;;;5050739;28;20397;-49
2020/12/26 10:51:06;;;;;;;12.02;8.10;;;;;;;;;;5050659;28;20209;-50
2020/12/26 10:53:32;;;;;;;11.30;8.68;;;;;;;;;;5050617;28;20206;-50
2020/12/26 10:55:58;;;;;;;10.38;7.18;;;;;;;;;;5050920;28;20197;-50
2020/12/26 10:58:24;;;;;;;9.30;7.00;;;;;;;;;;5050636;28;20180;-50
2020/12/26 11:00:50;;;;;;;9.33;5.93;;;;;;;;;;5050736;28;20424;-49
2020/12/26 11:03:16;;;;;;;9.20;6.60;;;;;;;;;;5050314;28;20435;-51
2020/12/26 11:05:42;;;;;;;7.63;5.97;;;;;;;;;;5050641;28;20527;-53
2020/12/26 11:08:08;;;;;;;10.77;6.27;;;;;;;;;;5046879;28;20458;-51
2020/12/26 11:10:34;;;;;;;9.23;4.97;;;;;;;;;;5050590;28;20468;-50
2020/12/26 11:13:00;;;;;;;6.27;5.67;;;;;;;;;;5050160;28;20413;-51
2020/12/26 11:15:26;;;;;;;11.13;5.90;;;;;;;;;;5050377;28;20839;-53
2020/12/26 11:17:52;;;;;;;8.30;5.57;;;;;;;;;;5050460;28;20504;-52
2020/12/26 11:20:18;;;;;;;10.87;6.60;;;;;;;;;;5050418;28;20574;-49
2020/12/26 11:22:44;;;;;;;7.43;5.73;;;;;;;;;;5050047;28;20431;-49
2020/12/26 11:25:10;;;;;;;9.37;6.63;;;;;;;;;;5050558;28;20401;-50
2020/12/26 11:27:37;;;;;;;17.10;5.80;;;;;;;;;;5050532;28;20791;-49
2020/12/26 11:30:03;;;;;;;9.90;5.63;;;;;;;;;;5050584;28;20400;-53
2020/12/26 11:32:30;;;;;;;6.72;5.78;;;;;;;;;;5050078;28;20426;-50
2020/12/26 11:34:56;;;;;;;8.13;6.50;;;;;;;;;;5053277;28;20175;-49
2020/12/26 11:37:22;;;;;;;5.47;4.73;;;;;;;;;;5054427;28;20411;-49
2020/12/26 11:39:48;;;;;;;8.60;5.17;;;;;;;;;;5051483;28;20457;-49
2020/12/26 11:42:14;;;;;;;8.40;5.40;;;;;;;;;;5054091;28;20957;-49
2020/12/26 11:44:40;;;;;;;7.75;5.35;;;;;;;;;;5054517;28;20411;-50
2020/12/26 11:47:07;;;;;;;12.57;5.30;;;;;;;;;;5054331;28;20173;-49
2020/12/26 11:49:33;;;;;;;7.53;5.40;;;;;;;;;;5054090;28;20886;-50
2020/12/26 11:51:59;;;;;;;10.60;4.70;;;;;;;;;;5054029;28;20427;-49
2020/12/26 11:54:25;;;;;;;10.33;4.70;;;;;;;;;;5054218;28;20409;-50
2020/12/26 11:56:51;;;;;;;5.63;5.00;;;;;;;;;;5054299;28;20405;-50
2020/12/26 11:59:17;;;;;;;7.20;5.17;;;;;;;;;;5054025;28;20475;-50
2020/12/26 12:01:43;;;;;;;7.03;5.23;;;;;;;;;;5053756;28;20470;-52
2020/12/26 12:04:09;;;;;;;7.43;3.90;;;;;;;;;;5053975;28;20816;-52
2020/12/26 12:06:35;;;;;;;5.63;4.47;;;;;;;;;;5053969;28;20443;-54
2020/12/26 12:09:03;;;;;;;7.87;4.87;;;;;;;;;;5052431;28;20462;-50
2020/12/26 12:11:29;;;;;;;5.20;4.63;;;;;;;;;;5053268;28;20457;-50
2020/12/26 12:13:55;;;;;;;8.70;5.53;;;;;;;;;;5053073;28;20451;-50
2020/12/26 12:16:21;;;;;;;8.57;5.20;;;;;;;;;;5053123;28;20458;-50
2020/12/26 12:18:47;;;;;;;5.10;4.60;;;;;;;;;;5053657;28;20400;-50
2020/12/26 12:21:13;;;;;;;4.73;4.27;;;;;;;;;;5053144;28;20812;-52
2020/12/26 12:23:38;;;;;;;5.70;4.80;;;;;;;;;;5053867;28;20420;-53
2020/12/26 12:26:05;;;;;;;5.07;4.33;;;;;;;;;;5053581;28;20447;-50
2020/12/26 12:28:31;;;;;;;9.00;5.30;;;;;;;;;;5053465;28;20434;-52
2020/12/26 12:30:57;;;;;;;6.80;3.97;;;;;;;;;;5053528;28;20165;-50
2020/12/26 12:33:23;;;;;;;4.00;3.70;;;;;;;;;;5052921;28;20417;-52
2020/12/26 12:35:49;;;;;;;6.23;4.07;;;;;;;;;;5053552;28;20190;-52
2020/12/26 12:38:15;;;;;;;9.17;4.80;;;;;;;;;;5049651;28;20433;-50
2020/12/26 12:40:41;;;;;;;8.40;4.83;;;;;;;;;;5053343;28;20459;-50
2020/12/26 12:43:07;;;;;;;3.73;3.43;;;;;;;;;;5048856;28;20450;-50
2020/12/26 12:45:33;;;;;;;6.53;3.80;;;;;;;;;;5052831;28;20406;-50
2020/12/26 12:47:58;;;;;;;7.03;3.80;;;;;;;;;;5053174;28;20494;-52
2020/12/26 12:50:26;;;;;;;6.87;4.53;;;;;;;;;;5053153;28;20787;-52
2020/12/26 12:52:52;;;;;;;9.63;4.00;;;;;;;;;;5052878;28;20421;-49
2020/12/26 12:55:18;;;;;;;3.83;3.53;;;;;;;;;;5041280;28;20175;-50
2020/12/26 12:57:44;;;;;;;4.40;3.17;;;;;;;;;;5030092;28;20462;-52
2020/12/26 13:00:10;;;;;;;4.63;3.50;;;;;;;;;;5039041;28;20462;-52
2020/12/26 13:02:36;;;;;;;4.07;3.67;;;;;;;;;;5038398;28;20525;-49
2020/12/26 13:05:02;;;;;;;3.40;2.87;;;;;;;;;;5050680;28;20257;-49
2020/12/26 13:07:28;;;;;;;4.07;3.07;;;;;;;;;;5052782;28;20408;-49
2020/12/26 13:09:54;;;;;;;6.63;3.00;;;;;;;;;;5042160;28;20433;-49
2020/12/26 13:12:20;;;;;;;5.77;3.30;;;;;;;;;;5031024;28;20827;-49
2020/12/26 13:14:46;;;;;;;3.20;3.00;;;;;;;;;;5032749;28;20798;-49
2020/12/26 13:17:12;;;;;;;4.60;2.92;;;;;;;;;;5038012;28;20437;-49
2020/12/26 13:19:40;;;;;;;4.70;3.37;;;;;;;;;;5052669;28;20210;-50
2020/12/26 13:22:06;;;;;;;4.65;3.17;;;;;;;;;;5052218;28;20421;-49
2020/12/26 13:24:32;;;;;;;3.30;3.00;;;;;;;;;;5041312;28;20181;-49
2020/12/26 13:27:00;;;;;;;3.33;3.03;;;;;;;;;;5028502;28;20179;-50
2020/12/26 13:29:26;;;;;;;3.40;3.10;;;;;;;;;;5031026;28;20403;-52
2020/12/26 13:31:52;;;;;;;3.00;2.70;;;;;;;;;;5031933;28;20262;-51
2020/12/26 13:34:18;;;;;;;5.17;2.67;;;;;;;;;;5032306;28;20206;-53
2020/12/26 13:36:44;;;;;;;2.77;2.57;;;;;;;;;;5031312;28;20421;-52
2020/12/26 13:39:10;;;;;;;6.60;3.40;;;;;;;;;;5038739;28;20844;-51
2020/12/26 13:41:36;;;;;;;4.32;3.53;;;;;;;;;;5035908;28;20662;-50
2020/12/26 13:44:03;;;;;;;6.10;3.08;;;;;;;;;;5038994;28;20181;-52
2020/12/26 13:46:29;;;;;;;3.15;2.33;;;;;;;;;;5048798;28;20193;-48
2020/12/26 13:48:55;;;;;;;4.70;2.78;;;;;;;;;;5041100;28;20191;-49
2020/12/26 13:51:22;;;;;;;4.88;3.65;;;;;;;;;;5030607;28;20623;-51
2020/12/26 13:53:49;;;;;;;3.20;2.53;;;;;;;;;;5035667;28;20207;-52
2020/12/26 13:56:21;;;;;;;10.60;3.38;;;;;;;;;;5034307;28;20242;-50
2020/12/26 13:58:47;;;;;;;3.45;2.65;;;;;;;;;;5027454;28;20241;-50
2020/12/26 14:01:13;;;;;;;7.15;2.97;;;;;;;;;;5008710;28;20539;-50
2020/12/26 14:03:40;;;;;;;4.20;3.80;;;;;;;;;;5027495;28;20195;-50
2020/12/26 14:06:08;;;;;;;3.42;2.55;;;;;;;;;;5030634;28;20203;-51
2020/12/26 14:08:34;;;;;;;4.15;3.75;;;;;;;;;;5039686;28;20167;-50
2020/12/26 14:11:00;;;;;;;4.45;2.75;;;;;;;;;;5038264;28;20639;-52
2020/12/26 14:13:26;;;;;;;4.03;3.47;;;;;;;;;;5040784;28;20246;-50
2020/12/26 14:15:52;;;;;;;9.00;4.13;;;;;;;;;;5031259;28;20411;-50
2020/12/26 14:18:18;;;;;;;4.73;2.73;;;;;;;;;;5036392;28;20190;-52
2020/12/26 14:20:44;;;;;;;4.20;3.00;;;;;;;;;;5030437;28;20472;-50
2020/12/26 14:23:09;;;;;;;3.50;2.57;;;;;;;;;;5029700;28;20517;-50
2020/12/26 14:25:35;;;;;;;3.30;2.80;;;;;;;;;;5032493;28;20423;-51